Time;durP1;ratioP1;P1;durP2;ratioP2;P2;SDS_P1;SDS_P2;PMS_P1;PMS_P2;Temp;Humidity;BMP_temperature;BMP_pressure;BME280_temperature;BME280_humidity;BME280_pressure;Samples;Min_cycle;Max_cycle;Signal;HPM_P1;HPM_P2
2022/12/25 00:01:51;;;;;;;18.35;5.60;;;;;;;3.29;100.00;100829.84;5074581;28;20059;-82
2022/12/25 00:04:16;;;;;;;14.15;5.32;;;;;;;3.32;100.00;100831.66;5075554;28;20526;-85
2022/12/25 00:06:41;;;;;;;13.30;5.32;;;;;;;3.35;100.00;100838.69;5082534;28;20044;-82
2022/12/25 00:09:07;;;;;;;15.65;4.55;;;;;;;3.33;100.00;100836.06;5075317;28;20037;-83
2022/12/25 00:11:32;;;;;;;9.90;4.60;;;;;;;3.35;100.00;100839.56;5076171;28;20051;-81
2022/12/25 00:13:57;;;;;;;14.77;5.00;;;;;;;3.34;100.00;100843.03;5075202;28;20040;-83
2022/12/25 00:16:25;;;;;;;10.65;4.57;;;;;;;3.36;100.00;100849.19;5075379;28;20048;-83
2022/12/25 00:18:51;;;;;;;21.90;4.13;;;;;;;3.28;100.00;100848.97;5074236;28;20403;-82
2022/12/25 00:21:18;;;;;;;20.38;4.85;;;;;;;3.12;100.00;100848.47;5075303;28;20032;-84
2022/12/25 00:23:43;;;;;;;12.13;4.93;;;;;;;3.09;100.00;100844.03;5075192;28;20039;-83
2022/12/25 00:26:12;;;;;;;13.18;5.35;;;;;;;3.11;100.00;100838.88;5075252;28;20414;-82
2022/12/25 00:28:38;;;;;;;10.80;5.13;;;;;;;3.13;100.00;100843.31;5075443;28;20040;-82
2022/12/25 00:31:08;;;;;;;14.35;4.82;;;;;;;3.21;100.00;100844.41;5074183;28;20390;-83
2022/12/25 00:33:35;;;;;;;15.63;4.07;;;;;;;3.32;100.00;100831.66;5075318;28;20032;-83
2022/12/25 00:36:01;;;;;;;19.25;4.28;;;;;;;3.41;100.00;100826.72;5073542;28;20039;-83
2022/12/25 00:38:27;;;;;;;10.98;4.75;;;;;;;3.47;100.00;100828.59;5075144;28;20473;-83
2022/12/25 00:40:52;;;;;;;11.05;3.33;;;;;;;3.46;100.00;100832.06;5074453;28;20139;-83
2022/12/25 00:43:18;;;;;;;13.25;3.92;;;;;;;3.47;100.00;100837.31;5075000;28;20024;-82
2022/12/25 00:45:52;;;;;;;13.93;4.38;;;;;;;3.38;100.00;100834.47;5073643;28;20154;-83
2022/12/25 00:48:17;;;;;;;11.45;4.50;;;;;;;3.26;100.00;100841.94;5071519;28;20040;-83
2022/12/25 00:50:42;;;;;;;12.90;4.55;;;;;;;3.15;100.00;100843.38;5074975;28;20137;-83
2022/12/25 00:53:07;;;;;;;11.65;3.97;;;;;;;3.08;100.00;100837.06;5080261;28;20032;-83
2022/12/25 00:55:33;;;;;;;10.10;4.05;;;;;;;3.00;100.00;100838.56;5078225;28;20414;-83
2022/12/25 00:57:58;;;;;;;14.43;4.45;;;;;;;2.94;100.00;100841.00;5078240;28;20652;-83
2022/12/25 01:00:23;;;;;;;7.50;4.03;;;;;;;2.80;100.00;100841.50;5075728;28;20047;-82
2022/12/25 01:02:49;;;;;;;11.77;3.58;;;;;;;2.74;100.00;100836.06;5076614;28;20029;-82
2022/12/25 01:05:14;;;;;;;9.93;3.72;;;;;;;2.71;100.00;100829.88;5078123;28;20048;-82
2022/12/25 01:07:39;;;;;;;8.50;3.50;;;;;;;2.68;100.00;100828.06;5077104;28;20043;-82
2022/12/25 01:10:23;;;;;;;11.77;4.13;;;;;;;2.71;100.00;100837.72;5077799;28;20514;-83
2022/12/25 01:12:51;;;;;;;10.65;4.07;;;;;;;2.74;100.00;100843.88;5073653;28;20435;-83
2022/12/25 01:15:17;;;;;;;8.20;3.97;;;;;;;2.76;100.00;100844.81;5077750;28;20518;-83
2022/12/25 01:17:43;;;;;;;13.48;4.32;;;;;;;2.79;100.00;100850.13;5076061;28;20071;-81
2022/12/25 01:20:11;;;;;;;13.38;5.20;;;;;;;2.80;100.00;100844.09;5078319;28;20037;-81
2022/12/25 01:22:36;;;;;;;9.63;4.35;;;;;;;2.85;100.00;100839.88;5077565;28;20097;-82
2022/12/25 01:25:01;;;;;;;9.13;4.22;;;;;;;2.82;100.00;100846.72;5076175;28;20040;-83
2022/12/25 01:27:27;;;;;;;9.18;4.45;;;;;;;2.77;100.00;100846.56;5076350;28;20028;-82
2022/12/25 01:29:52;;;;;;;11.63;3.88;;;;;;;2.78;100.00;100850.97;5078184;28;20037;-83
2022/12/25 01:32:18;;;;;;;10.57;3.85;;;;;;;2.78;100.00;100850.97;5077761;28;20064;-82
2022/12/25 01:34:43;;;;;;;6.28;3.42;;;;;;;2.77;100.00;100856.13;5077424;28;20039;-81
2022/12/25 01:37:09;;;;;;;8.15;3.50;;;;;;;2.76;100.00;100859.59;5077034;28;20044;-83
2022/12/25 01:39:35;;;;;;;11.40;3.42;;;;;;;2.71;100.00;100856.81;5077359;28;20051;-81
2022/12/25 01:42:00;;;;;;;6.47;3.60;;;;;;;2.64;100.00;100858.34;5076717;28;20032;-82
2022/12/25 01:44:34;;;;;;;8.57;3.20;;;;;;;2.63;100.00;100881.78;5077083;28;20037;-82
2022/12/25 01:47:01;;;;;;;5.15;2.20;;;;;;;2.52;100.00;100876.22;5077035;28;20483;-81
2022/12/25 01:49:26;;;;;;;5.63;2.92;;;;;;;2.40;100.00;100881.91;5074252;28;20048;-82
2022/12/25 01:51:59;;;;;;;9.60;2.92;;;;;;;2.36;100.00;100868.75;5078545;28;20050;-82
2022/12/25 01:54:33;;;;;;;5.97;2.97;;;;;;;2.28;100.00;100873.72;5076895;28;20040;-83
2022/12/25 01:57:04;;;;;;;7.75;2.40;;;;;;;2.24;100.00;100870.94;5073112;28;20033;-82
2022/12/25 01:59:30;;;;;;;8.23;2.72;;;;;;;2.25;100.00;100870.97;5076791;28;20036;-83
2022/12/25 02:01:56;;;;;;;9.65;3.00;;;;;;;2.26;100.00;100871.88;5078406;28;20036;-82
2022/12/25 02:04:38;;;;;;;4.97;2.40;;;;;;;2.28;100.00;100875.41;5076730;28;20491;-83
2022/12/25 02:07:04;;;;;;;9.60;3.25;;;;;;;2.25;100.00;100884.00;5066722;28;20042;-83
2022/12/25 02:09:31;;;;;;;7.50;2.92;;;;;;;2.20;100.00;100875.16;5076372;28;20115;-82
2022/12/25 02:11:56;;;;;;;8.13;3.05;;;;;;;2.18;100.00;100884.66;5084580;28;20059;-83
2022/12/25 02:14:26;;;;;;;3.97;2.00;;;;;;;2.13;100.00;100879.28;5076236;28;20479;-82
2022/12/25 02:17:02;;;;;;;7.60;3.00;;;;;;;2.07;100.00;100879.09;5076910;28;20024;-82
2022/12/25 02:20:09;;;;;;;8.05;2.78;;;;;;;2.01;100.00;100889.28;5077790;28;20044;-82
2022/12/25 02:22:47;;;;;;;8.50;2.53;;;;;;;1.95;100.00;100884.75;5077839;28;20462;-81
2022/12/25 02:25:46;;;;;;;9.48;2.90;;;;;;;1.89;100.00;100886.28;5073214;28;20036;-81
2022/12/25 02:28:17;;;;;;;6.13;2.05;;;;;;;1.83;100.00;100893.84;5075104;28;20469;-82
2022/12/25 02:30:49;;;;;;;5.40;2.08;;;;;;;1.77;100.00;100885.84;5076977;28;20032;-82
2022/12/25 02:36:14;;;;;;;5.53;2.88;;;;;;;1.71;100.00;100897.81;5073399;28;20476;-82
2022/12/25 02:39:56;;;;;;;7.75;2.75;;;;;;;1.66;100.00;100888.06;5075854;28;20032;-82
2022/12/25 02:41:32;;;;;;;7.60;2.70;;;;;;;1.60;100.00;100885.22;5090779;28;20045;-82
2022/12/25 03:06:43;;;;;;;6.05;2.60;;;;;;;1.03;100.00;100898.75;5089887;28;20093;-82
2022/12/25 03:12:14;;;;;;;4.72;2.47;;;;;;;0.96;100.00;100894.13;5074710;28;20086;-81
2022/12/25 03:17:24;;;;;;;163.55;11.32;;;;;;;0.91;100.00;100887.88;5071208;28;20044;-81
2022/12/25 03:28:04;;;;;;;8.65;2.97;;;;;;;0.69;100.00;100887.06;5072442;28;20132;-82
2022/12/25 03:31:11;;;;;;;7.05;3.33;;;;;;;0.72;100.00;100886.28;5074899;28;20036;-82
2022/12/25 04:38:06;;;;;;;4.17;1.60;;;;;;;0.68;100.00;100921.63;5045062;28;20048;-76
2022/12/25 04:40:31;;;;;;;13.80;2.13;;;;;;;0.72;100.00;100933.03;5043320;28;20045;-76
2022/12/25 04:42:57;;;;;;;3.80;1.37;;;;;;;0.80;100.00;100932.50;5046286;28;20483;-77
2022/12/25 04:45:22;;;;;;;3.33;1.38;;;;;;;0.99;100.00;100938.44;5045735;28;20055;-76
2022/12/25 04:47:47;;;;;;;4.72;1.95;;;;;;;1.22;100.00;100940.22;5043448;28;20029;-76
2022/12/25 04:50:12;;;;;;;3.00;1.52;;;;;;;1.38;100.00;100953.78;5048256;28;20059;-76
2022/12/25 04:52:39;;;;;;;3.03;1.30;;;;;;;1.51;100.00;100953.41;5044657;28;20495;-76
2022/12/25 04:55:06;;;;;;;3.30;1.40;;;;;;;1.63;100.00;100946.09;5045990;28;20402;-76
2022/12/25 04:57:32;;;;;;;4.78;1.88;;;;;;;1.65;100.00;100939.22;5045619;28;20033;-76
2022/12/25 04:59:57;;;;;;;6.28;1.73;;;;;;;1.73;100.00;100942.09;5046351;28;20038;-76
2022/12/25 05:02:23;;;;;;;5.32;1.98;;;;;;;1.85;100.00;100945.13;5048257;28;20037;-76
2022/12/25 05:04:48;;;;;;;4.22;1.95;;;;;;;1.92;100.00;100952.31;5047642;28;20147;-76
2022/12/25 05:07:13;;;;;;;5.22;1.70;;;;;;;2.06;100.00;100955.41;5043338;28;20037;-76
2022/12/25 05:09:40;;;;;;;5.38;1.70;;;;;;;2.13;100.00;100951.31;5045126;28;20037;-76
2022/12/25 05:12:06;;;;;;;8.25;2.00;;;;;;;2.09;100.00;100947.69;5045546;28;20036;-76
2022/12/25 05:14:32;;;;;;;8.63;2.38;;;;;;;2.09;100.00;100950.31;5049074;28;20154;-76
2022/12/25 05:16:57;;;;;;;5.13;2.53;;;;;;;2.11;100.00;100948.66;5042689;28;20527;-76
2022/12/25 05:19:22;;;;;;;5.53;2.60;;;;;;;2.16;100.00;100947.09;5044114;28;20048;-76
2022/12/25 05:21:48;;;;;;;5.95;2.40;;;;;;;2.20;100.00;100940.25;5044100;28;20030;-76
2022/12/25 05:24:13;;;;;;;7.38;3.20;;;;;;;2.28;100.00;100937.91;5046140;28;20120;-76
2022/12/25 05:26:38;;;;;;;6.95;2.72;;;;;;;2.28;100.00;100948.34;5046837;28;20040;-76
2022/12/25 05:29:03;;;;;;;7.40;3.33;;;;;;;2.33;100.00;100946.78;5041972;28;20044;-76
2022/12/25 05:31:29;;;;;;;8.40;3.38;;;;;;;2.35;100.00;100945.13;5044908;28;20033;-76
2022/12/25 05:33:54;;;;;;;12.90;3.80;;;;;;;2.34;100.00;100945.97;5045091;28;20123;-76
2022/12/25 05:36:20;;;;;;;12.00;5.20;;;;;;;2.25;100.00;100948.22;5043119;28;20045;-76
2022/12/25 05:38:45;;;;;;;10.73;5.03;;;;;;;2.24;100.00;100941.25;5043875;28;20056;-76
2022/12/25 05:41:11;;;;;;;10.20;4.47;;;;;;;2.24;100.00;100947.34;5045592;28;20032;-76
2022/12/25 05:43:36;;;;;;;10.40;4.80;;;;;;;2.22;100.00;100938.59;5045395;28;20029;-76
2022/12/25 05:46:09;;;;;;;9.25;4.82;;;;;;;2.24;100.00;100943.88;5041534;28;20037;-76
2022/12/25 05:48:35;;;;;;;9.77;4.30;;;;;;;2.22;100.00;100945.53;5043139;28;20036;-76
2022/12/25 05:51:06;;;;;;;12.68;4.78;;;;;;;2.14;100.00;100948.75;5043938;28;20546;-76
2022/12/25 05:53:32;;;;;;;7.38;3.50;;;;;;;2.03;100.00;100944.00;5045927;28;20118;-76
2022/12/25 05:56:00;;;;;;;10.68;3.75;;;;;;;2.02;100.00;100942.22;5044452;28;20653;-76
2022/12/25 05:58:26;;;;;;;14.25;4.65;;;;;;;1.97;100.00;100936.88;5042949;28;20052;-75
2022/12/25 06:00:51;;;;;;;10.98;3.50;;;;;;;1.89;100.00;100938.34;5042716;28;20037;-76
2022/12/25 06:03:16;;;;;;;20.23;3.65;;;;;;;1.77;100.00;100937.88;5045320;28;20033;-76
2022/12/25 06:05:42;;;;;;;13.73;3.83;;;;;;;1.60;100.00;100935.56;5044949;28;20033;-75
2022/12/25 06:08:07;;;;;;;10.18;3.50;;;;;;;1.42;100.00;100929.69;5041197;28;20051;-77
2022/12/25 06:10:32;;;;;;;13.05;3.35;;;;;;;1.31;100.00;100931.91;5043990;28;20045;-76
2022/12/25 06:12:58;;;;;;;24.02;3.72;;;;;;;1.30;100.00;100946.59;5042317;28;20030;-76
2022/12/25 06:15:23;;;;;;;8.60;3.05;;;;;;;1.27;100.00;100951.66;5042551;28;20064;-76
2022/12/25 06:17:48;;;;;;;21.55;4.32;;;;;;;1.23;100.00;100949.81;5043258;28;20079;-77
2022/12/25 06:20:14;;;;;;;7.90;3.50;;;;;;;1.21;100.00;100940.16;5044886;28;20041;-76
2022/12/25 06:22:39;;;;;;;12.02;3.83;;;;;;;1.20;100.00;100930.56;5044756;28;20147;-76
2022/12/25 06:25:04;;;;;;;9.68;3.55;;;;;;;1.17;100.00;100933.94;5040984;28;20087;-77
2022/12/25 06:27:30;;;;;;;11.27;4.40;;;;;;;1.10;100.00;100926.72;5043130;28;20044;-77
2022/12/25 06:29:55;;;;;;;14.82;4.72;;;;;;;1.08;100.00;100924.09;5042242;28;20044;-77
2022/12/25 06:32:20;;;;;;;8.45;3.72;;;;;;;1.08;100.00;100907.63;5046245;28;20041;-77
2022/12/25 06:34:46;;;;;;;9.65;3.22;;;;;;;1.06;100.00;100912.75;5041621;28;20064;-77
2022/12/25 06:37:11;;;;;;;8.85;4.35;;;;;;;1.04;100.00;100911.78;5043326;28;20045;-76
2022/12/25 06:39:36;;;;;;;9.70;4.20;;;;;;;1.05;100.00;100916.19;5040610;28;20091;-77
2022/12/25 06:42:02;;;;;;;13.60;3.85;;;;;;;1.04;100.00;100921.31;5044424;28;20040;-77
2022/12/25 06:44:27;;;;;;;9.00;3.28;;;;;;;0.99;100.00;100922.84;5044393;28;20033;-77
2022/12/25 06:46:53;;;;;;;10.02;4.32;;;;;;;0.96;100.00;100927.94;5042163;28;20060;-77
2022/12/25 06:49:18;;;;;;;14.63;4.38;;;;;;;0.92;100.00;100924.34;5061455;28;20088;-77
2022/12/25 06:51:44;;;;;;;11.32;3.92;;;;;;;0.86;100.00;100927.59;5040469;28;20041;-77
2022/12/25 06:54:09;;;;;;;8.57;2.55;;;;;;;0.85;100.00;100930.09;5043715;28;20039;-77
2022/12/25 06:56:34;;;;;;;8.75;2.72;;;;;;;0.81;100.00;100933.41;5043537;28;20577;-77
2022/12/25 06:59:05;;;;;;;89.18;5.57;;;;;;;0.80;100.00;100932.50;5046753;28;20033;-77
2022/12/25 07:01:38;;;;;;;8.32;3.40;;;;;;;0.77;100.00;100929.81;5042320;28;20065;-77
2022/12/25 07:04:06;;;;;;;9.07;4.32;;;;;;;0.80;100.00;100937.72;5045586;28;20043;-77
2022/12/25 07:06:32;;;;;;;9.18;3.40;;;;;;;0.81;100.00;100949.91;5040491;28;20037;-77
2022/12/25 07:08:57;;;;;;;7.22;2.53;;;;;;;0.80;100.00;100950.69;5040918;28;20107;-77
2022/12/25 07:11:23;;;;;;;9.93;2.88;;;;;;;0.79;100.00;100948.94;5043315;28;20036;-77
2022/12/25 07:13:49;;;;;;;7.57;2.58;;;;;;;0.79;100.00;100953.25;5043314;28;20069;-77
2022/12/25 07:16:14;;;;;;;6.28;3.38;;;;;;;0.79;100.00;100958.47;5042813;28;20041;-76
2022/12/25 07:18:40;;;;;;;7.35;2.58;;;;;;;0.79;100.00;100976.66;5041782;28;20115;-77
2022/12/25 07:21:06;;;;;;;6.55;2.83;;;;;;;0.84;100.00;100981.19;5042549;28;20045;-77
2022/12/25 07:23:32;;;;;;;11.77;3.10;;;;;;;0.86;100.00;100986.44;5045665;28;20067;-77
2022/12/25 07:25:59;;;;;;;10.63;4.03;;;;;;;0.88;100.00;100985.69;5041274;28;20112;-77
2022/12/25 07:28:25;;;;;;;9.20;2.97;;;;;;;0.91;100.00;100981.44;5040370;28;20065;-75
2022/12/25 07:30:50;;;;;;;6.70;2.55;;;;;;;0.91;100.00;100973.63;5043081;28;20067;-77
2022/12/25 07:33:16;;;;;;;11.32;4.18;;;;;;;0.94;100.00;100968.56;5042000;28;20438;-77
2022/12/25 07:35:41;;;;;;;5.70;2.78;;;;;;;0.97;100.00;100981.66;5043319;28;20128;-77
2022/12/25 07:38:07;;;;;;;5.22;2.67;;;;;;;1.01;100.00;100991.38;5041740;28;20477;-77
2022/12/25 07:40:32;;;;;;;8.07;2.75;;;;;;;1.01;100.00;100979.25;5041676;28;20491;-77
2022/12/25 07:42:57;;;;;;;8.27;4.22;;;;;;;1.10;100.00;100983.91;5041826;28;20029;-77
2022/12/25 07:45:23;;;;;;;7.07;2.88;;;;;;;1.18;100.00;100992.03;5045651;28;20384;-77
2022/12/25 07:47:48;;;;;;;3.08;1.40;;;;;;;1.22;100.00;100979.22;5039401;28;20585;-77
2022/12/25 07:50:13;;;;;;;4.63;1.75;;;;;;;1.27;100.00;100982.00;5042592;28;20646;-77
2022/12/25 07:52:39;;;;;;;7.30;2.45;;;;;;;1.30;100.00;100983.00;5042680;28;20123;-77
2022/12/25 07:55:04;;;;;;;4.80;1.73;;;;;;;1.35;100.00;100984.91;5040813;28;20037;-77
2022/12/25 07:57:29;;;;;;;6.55;2.55;;;;;;;1.42;100.00;100976.50;5043918;28;20041;-77
2022/12/25 07:59:55;;;;;;;4.13;1.40;;;;;;;1.50;100.00;100973.34;5042024;28;20029;-77
2022/12/25 08:02:26;;;;;;;3.78;1.48;;;;;;;1.55;100.00;100976.13;5042239;28;20533;-77
2022/12/25 08:04:52;;;;;;;5.72;2.15;;;;;;;1.58;100.00;100973.66;5043412;28;20068;-77
2022/12/25 08:07:17;;;;;;;4.50;1.77;;;;;;;1.64;100.00;100970.38;5046957;28;20071;-77
2022/12/25 08:09:43;;;;;;;7.57;1.85;;;;;;;1.69;100.00;100980.13;5044880;28;20048;-77
2022/12/25 08:12:08;;;;;;;8.60;2.58;;;;;;;1.75;100.00;100975.13;5045869;28;20037;-77
2022/12/25 08:14:33;;;;;;;4.45;1.58;;;;;;;1.79;100.00;100973.53;5047249;28;20033;-77
2022/12/25 08:16:59;;;;;;;3.58;1.40;;;;;;;1.77;100.00;100974.31;5046382;28;20032;-77
2022/12/25 08:19:24;;;;;;;14.32;2.13;;;;;;;1.75;100.00;100969.91;5046305;28;20032;-76
2022/12/25 08:21:49;;;;;;;8.77;1.90;;;;;;;1.73;100.00;100969.00;5044218;28;20056;-77
2022/12/25 08:24:14;;;;;;;5.05;2.47;;;;;;;1.82;100.00;100962.38;5046950;28;20407;-78
2022/12/25 08:26:40;;;;;;;3.30;1.23;;;;;;;1.90;100.00;100956.59;5044082;28;20974;-77
2022/12/25 08:29:05;;;;;;;4.10;1.63;;;;;;;1.98;100.00;100964.69;5046464;28;20515;-77
2022/12/25 08:31:32;;;;;;;3.38;1.00;;;;;;;2.06;100.00;100963.22;5046391;28;20037;-77
2022/12/25 08:34:01;;;;;;;3.67;1.50;;;;;;;2.18;100.00;100958.44;5061730;28;20037;-77
2022/12/25 08:36:26;;;;;;;6.93;2.33;;;;;;;2.27;100.00;100955.28;5043722;28;20065;-77
2022/12/25 08:38:52;;;;;;;4.72;1.33;;;;;;;2.35;100.00;100960.75;5046552;28;20068;-77
2022/12/25 08:41:17;;;;;;;4.25;1.55;;;;;;;2.45;100.00;100968.03;5045336;28;20095;-77
2022/12/25 08:43:43;;;;;;;3.55;1.35;;;;;;;2.52;100.00;100969.13;5046679;28;20029;-77
2022/12/25 08:46:08;;;;;;;8.95;1.60;;;;;;;2.59;100.00;100961.59;5042544;28;20091;-76
2022/12/25 08:48:34;;;;;;;3.30;1.40;;;;;;;2.67;100.00;100963.53;5046559;28;20045;-77
2022/12/25 08:51:00;;;;;;;6.93;1.77;;;;;;;2.72;100.00;100961.97;5060378;28;20041;-77
2022/12/25 08:53:26;;;;;;;4.40;1.45;;;;;;;2.75;100.00;100965.56;5045064;28;20045;-77
2022/12/25 08:56:05;;;;;;;5.60;1.65;;;;;;;2.82;100.00;100953.59;5043514;28;20037;-77
2022/12/25 08:58:30;;;;;;;5.00;1.75;;;;;;;2.83;100.00;100951.06;5045040;28;20496;-77
2022/12/25 09:00:56;;;;;;;4.47;1.55;;;;;;;2.85;100.00;100946.75;5045839;28;20033;-77
2022/12/25 09:03:22;;;;;;;3.10;1.13;;;;;;;2.88;100.00;100947.69;5045771;28;20033;-76
2022/12/25 09:05:47;;;;;;;3.03;1.42;;;;;;;2.90;100.00;100951.25;5051878;28;20041;-77
2022/12/25 09:08:12;;;;;;;5.20;1.65;;;;;;;2.91;100.00;100946.09;5046198;28;20040;-76
2022/12/25 09:10:38;;;;;;;8.23;1.50;;;;;;;2.94;100.00;100946.19;5043050;28;20037;-76
2022/12/25 09:13:03;;;;;;;6.82;1.70;;;;;;;2.97;100.00;100938.44;5047274;28;20033;-77
2022/12/25 09:15:29;;;;;;;6.25;2.10;;;;;;;3.03;100.00;100941.22;5045901;28;20079;-77
2022/12/25 09:17:55;;;;;;;3.20;1.23;;;;;;;3.13;100.00;100936.31;5046105;28;20499;-77
2022/12/25 09:20:20;;;;;;;3.05;1.45;;;;;;;3.21;100.00;100911.34;5044934;28;20041;-77
2022/12/25 09:22:46;;;;;;;3.08;1.48;;;;;;;3.32;100.00;100899.50;5047181;28;20021;-77
2022/12/25 09:25:11;;;;;;;7.30;1.25;;;;;;;3.44;100.00;100884.19;5042887;28;20056;-77
2022/12/25 09:27:36;;;;;;;4.40;1.02;;;;;;;3.59;100.00;100878.53;5045547;28;20412;-77
2022/12/25 09:30:02;;;;;;;3.97;1.45;;;;;;;3.69;100.00;100864.00;5044397;28;20381;-76
2022/12/25 09:32:28;;;;;;;3.50;1.58;;;;;;;3.74;100.00;100857.16;5047272;28;20041;-77
2022/12/25 09:34:53;;;;;;;4.45;1.50;;;;;;;3.91;100.00;100850.66;5042872;28;20029;-77
2022/12/25 09:39:56;;;;;;;8.18;1.60;;;;;;;4.24;100.00;100844.50;5002342;28;20196;-75
2022/12/25 09:42:23;;;;;;;2.35;1.13;;;;;;;4.38;100.00;100835.28;5006111;28;20042;-76
2022/12/25 09:44:55;;;;;;;11.00;1.67;;;;;;;4.53;100.00;100840.00;5005988;28;20037;-75
2022/12/25 09:47:24;;;;;;;3.00;1.05;;;;;;;4.65;100.00;100826.31;5002417;28;20046;-75
2022/12/25 09:50:27;;;;;;;6.53;0.98;;;;;;;4.80;100.00;100826.66;5024156;28;20427;-75
2022/12/25 09:53:04;;;;;;;3.13;1.48;;;;;;;4.94;100.00;100829.56;5027835;28;20033;-76
2022/12/25 09:55:35;;;;;;;6.60;1.38;;;;;;;5.02;100.00;100825.38;5022880;28;20516;-75
2022/12/25 09:58:07;;;;;;;6.43;1.67;;;;;;;5.05;100.00;100830.69;5022186;28;20518;-76
2022/12/25 10:00:44;;;;;;;;;;;;;;;5.05;100.00;100840.25;5022466;28;20102;-76
2022/12/25 10:03:25;;;;;;;3.25;1.10;;;;;;;5.04;100.00;100854.22;5023279;28;19921;-76
2022/12/25 10:06:16;;;;;;;4.35;1.08;;;;;;;5.11;100.00;100858.72;5022681;28;20040;-75
2022/12/25 10:09:06;;;;;;;3.45;1.50;;;;;;;5.21;100.00;100865.94;5023058;28;20029;-75
2022/12/25 10:11:44;;;;;;;3.58;1.27;;;;;;;5.29;100.00;100876.53;5023268;28;20048;-75
2022/12/25 10:14:49;;;;;;;5.18;1.42;;;;;;;5.46;100.00;100876.88;5024468;28;20044;-75
2022/12/25 10:17:43;;;;;;;5.80;0.90;;;;;;;5.60;100.00;100854.47;5022241;28;20092;-75
2022/12/25 10:20:19;;;;;;;4.00;1.00;;;;;;;5.78;100.00;100853.06;5024331;28;20411;-75
2022/12/25 10:22:53;;;;;;;5.30;1.33;;;;;;;5.94;100.00;100849.88;5023790;28;20032;-75
2022/12/25 10:25:21;;;;;;;4.22;1.55;;;;;;;6.13;100.00;100840.59;5024562;28;20033;-76
2022/12/25 10:28:03;;;;;;;6.05;2.00;;;;;;;6.32;100.00;100836.56;5020291;28;20046;-76
2022/12/25 10:30:28;;;;;;;10.18;2.80;;;;;;;6.46;100.00;100839.41;5020272;28;20045;-76
2022/12/25 10:32:55;;;;;;;12.50;3.00;;;;;;;6.62;100.00;100820.41;5025055;28;20021;-76
2022/12/25 10:35:24;;;;;;;9.52;3.22;;;;;;;6.83;100.00;100827.69;5023915;28;20052;-76
2022/12/25 10:37:58;;;;;;;9.32;3.00;;;;;;;7.01;100.00;100822.69;5021966;28;20045;-76
2022/12/25 10:40:57;;;;;;;11.95;2.45;;;;;;;7.26;100.00;100836.13;5020930;28;20060;-76
2022/12/25 10:43:31;;;;;;;8.98;2.58;;;;;;;7.50;100.00;100845.16;5024126;28;20032;-76
2022/12/25 10:45:58;;;;;;;5.35;1.60;;;;;;;7.73;100.00;100848.94;5023814;28;20461;-76
2022/12/25 10:48:31;;;;;;;6.10;2.08;;;;;;;8.01;100.00;100838.69;5023777;28;20400;-76
2022/12/25 10:50:57;;;;;;;9.88;1.92;;;;;;;8.22;100.00;100828.34;5021703;28;20103;-76
2022/12/25 10:53:25;;;;;;;6.55;2.40;;;;;;;8.45;100.00;100825.06;5024485;28;20029;-76
2022/12/25 10:56:02;;;;;;;4.88;1.92;;;;;;;8.67;100.00;100818.16;5023268;28;20039;-76
2022/12/25 10:58:29;;;;;;;9.73;2.10;;;;;;;8.84;100.00;100821.78;5020103;28;20033;-76
2022/12/25 11:01:01;;;;;;;6.25;2.13;;;;;;;9.02;100.00;100830.69;5021974;28;20488;-75
2022/12/25 11:03:38;;;;;;;5.50;2.15;;;;;;;9.13;100.00;100816.66;5023721;28;20117;-74
2022/12/25 11:06:05;;;;;;;5.10;1.48;;;;;;;9.16;100.00;100816.69;5037034;28;20076;-76
2022/12/25 11:08:33;;;;;;;6.85;2.00;;;;;;;9.19;100.00;100805.28;5022304;28;20128;-75
2022/12/25 11:11:07;;;;;;;5.93;2.15;;;;;;;9.29;100.00;100811.47;5027559;28;20030;-75
2022/12/25 11:13:37;;;;;;;6.78;1.70;;;;;;;9.40;100.00;100810.63;5023956;28;20042;-76
2022/12/25 11:16:12;;;;;;;6.28;1.70;;;;;;;9.38;100.00;100801.84;5023988;28;20056;-76
2022/12/25 11:18:49;;;;;;;5.03;1.73;;;;;;;9.34;100.00;100788.66;5020643;28;20126;-75
2022/12/25 11:21:24;;;;;;;6.55;2.20;;;;;;;9.42;100.00;100787.78;5022147;28;20022;-76
2022/12/25 11:24:00;;;;;;;8.35;2.70;;;;;;;9.49;100.00;100783.44;5023429;28;20030;-76
2022/12/25 11:26:30;;;;;;;5.38;2.00;;;;;;;9.50;100.00;100777.28;5021399;28;20065;-76
2022/12/25 11:28:57;;;;;;;7.32;2.55;;;;;;;9.46;100.00;100778.16;5022317;28;20041;-76
2022/12/25 11:31:34;;;;;;;3.75;1.73;;;;;;;9.39;100.00;100779.00;5021127;28;20048;-75
2022/12/25 11:34:06;;;;;;;4.78;1.73;;;;;;;9.32;100.00;100764.06;5024561;28;20410;-76
2022/12/25 11:36:42;;;;;;;5.90;2.10;;;;;;;9.26;100.00;100761.41;5020455;28;20042;-75
2022/12/25 11:39:25;;;;;;;6.63;2.72;;;;;;;9.16;100.00;100760.50;5023508;28;20114;-76
2022/12/25 11:41:55;;;;;;;6.50;2.10;;;;;;;9.18;100.00;100751.75;5021694;28;20038;-76
2022/12/25 11:44:36;;;;;;;7.35;2.25;;;;;;;9.14;100.00;100744.72;5020559;28;20088;-76
2022/12/25 11:47:11;;;;;;;4.75;2.42;;;;;;;9.10;100.00;100737.66;5019784;28;20044;-76
2022/12/25 11:49:45;;;;;;;10.00;2.92;;;;;;;9.17;100.00;100750.00;5022489;28;20236;-76
2022/12/25 11:52:12;;;;;;;10.93;2.63;;;;;;;9.25;100.00;100742.13;5021319;28;20076;-76
2022/12/25 11:54:54;;;;;;;7.97;2.75;;;;;;;9.39;100.00;100735.09;5022905;28;20058;-76
2022/12/25 11:57:25;;;;;;;5.13;2.63;;;;;;;9.43;100.00;100726.34;5020952;28;20045;-75
2022/12/25 11:59:58;;;;;;;4.72;2.30;;;;;;;9.42;100.00;100705.25;5023366;28;20068;-76
2022/12/25 12:02:44;;;;;;;6.90;2.28;;;;;;;9.37;100.00;100714.91;5020446;28;20069;-75
2022/12/25 12:05:12;;;;;;;12.40;3.05;;;;;;;9.37;100.00;100699.97;5019821;28;20073;-75
2022/12/25 12:07:52;;;;;;;7.00;2.42;;;;;;;9.41;100.00;100692.97;5021246;28;20040;-76
2022/12/25 12:10:30;;;;;;;5.25;2.67;;;;;;;9.49;100.00;100695.63;5023191;28;20037;-75
2022/12/25 12:13:17;;;;;;;6.40;2.28;;;;;;;9.57;100.00;100691.22;5023314;28;20407;-76
2022/12/25 12:15:49;;;;;;;7.75;2.70;;;;;;;9.63;100.00;100684.19;5021044;28;20029;-76
2022/12/25 12:18:20;;;;;;;;;;;;;;;9.68;100.00;100680.69;5019949;28;20049;-76
2022/12/25 12:20:58;;;;;;;7.38;3.10;;;;;;;9.70;100.00;100671.91;5023233;28;19943;-76
2022/12/25 12:23:25;;;;;;;6.05;2.38;;;;;;;9.70;100.00;100671.03;5038678;28;20043;-76
2022/12/25 12:25:51;;;;;;;5.40;2.38;;;;;;;9.74;100.00;100667.50;5019357;28;20096;-76
2022/12/25 12:28:23;;;;;;;4.43;2.17;;;;;;;9.69;100.00;100669.25;5021749;28;20484;-76
2022/12/25 12:30:57;;;;;;;9.13;1.80;;;;;;;9.64;100.00;100671.88;5022150;28;20401;-76
2022/12/25 12:33:24;;;;;;;7.78;2.40;;;;;;;9.62;100.00;100669.28;5022488;28;20037;-76
2022/12/25 12:35:50;;;;;;;7.47;2.50;;;;;;;9.63;100.00;100657.84;5020172;28;20488;-76
2022/12/25 12:38:18;;;;;;;8.20;1.90;;;;;;;9.69;100.00;100642.91;5020844;28;20136;-76
2022/12/25 12:41:05;;;;;;;5.82;2.10;;;;;;;9.73;100.00;100640.28;5021757;28;20488;-76
2022/12/25 12:43:46;;;;;;;7.25;2.38;;;;;;;9.72;100.00;100627.06;5022561;28;20065;-75
2022/12/25 12:46:22;;;;;;;9.43;2.80;;;;;;;9.77;100.00;100630.59;5021280;28;20045;-76
2022/12/25 12:48:49;;;;;;;9.48;2.22;;;;;;;9.82;100.00;100634.09;5022328;28;20042;-76
2022/12/25 12:51:30;;;;;;;9.77;2.90;;;;;;;9.85;100.00;100624.44;5023162;28;20038;-75
2022/12/25 12:54:19;;;;;;;6.65;2.38;;;;;;;9.81;100.00;100627.97;5026683;28;20515;-76
2022/12/25 12:56:55;;;;;;;13.60;2.83;;;;;;;9.70;100.00;100613.06;5025303;28;20103;-76
2022/12/25 12:59:22;;;;;;;9.15;2.58;;;;;;;9.55;100.00;100612.16;5022629;28;20038;-76
2022/12/25 13:02:01;;;;;;;6.72;2.30;;;;;;;9.44;100.00;100622.72;5028604;28;20037;-76
2022/12/25 13:04:43;;;;;;;7.00;2.53;;;;;;;9.40;100.00;100635.88;5024817;28;20041;-75
2022/12/25 13:07:31;;;;;;;6.83;2.20;;;;;;;9.37;100.00;100633.25;5025717;28;20037;-76
2022/12/25 13:10:01;;;;;;;5.18;2.03;;;;;;;9.23;100.00;100613.94;5018594;28;20042;-76
2022/12/25 13:12:27;;;;;;;9.60;2.47;;;;;;;9.23;100.00;100624.47;5026039;28;20060;-74
2022/12/25 13:14:52;;;;;;;8.32;2.58;;;;;;;9.26;100.00;100630.63;5025104;28;20156;-76
2022/12/25 13:17:21;;;;;;;5.45;2.45;;;;;;;9.24;100.00;100634.13;5023898;28;20477;-76
2022/12/25 13:19:57;;;;;;;5.50;2.22;;;;;;;9.26;100.00;100642.91;5025115;28;20188;-76
2022/12/25 13:22:28;;;;;;;9.93;3.13;;;;;;;9.27;100.00;100660.44;5023200;28;20036;-76